Time;durP1;ratioP1;P1;durP2;ratioP2;P2;SDS_P1;SDS_P2;PMS_P1;PMS_P2;Temp;Humidity;BMP_temperature;BMP_pressure;BME280_temperature;BME280_humidity;BME280_pressure;Samples;Min_cycle;Max_cycle;Signal;HPM_P1;HPM_P2
2023/05/04 00:00:43;;;;;;;16.43;15.17;;;6.00;99.90;;;;;;5039304;28;20195;-49
2023/05/04 00:03:08;;;;;;;16.67;15.27;;;5.90;99.90;;;;;;5039020;28;20706;-49
2023/05/04 00:05:34;;;;;;;16.10;14.73;;;5.90;99.90;;;;;;5039400;28;20306;-49
2023/05/04 00:08:00;;;;;;;16.73;15.40;;;5.90;99.90;;;;;;5039418;28;20496;-54
2023/05/04 00:10:26;;;;;;;17.58;16.08;;;5.80;99.90;;;;;;5039615;28;20423;-49
2023/05/04 00:12:53;;;;;;;17.42;15.82;;;5.80;99.90;;;;;;5039183;28;20299;-51
2023/05/04 00:15:19;;;;;;;16.65;15.27;;;5.70;99.90;;;;;;5039644;28;20187;-52
2023/05/04 00:17:45;;;;;;;16.10;14.80;;;5.70;99.90;;;;;;5036940;28;20185;-48
2023/05/04 00:20:12;;;;;;;16.00;14.80;;;5.70;99.90;;;;;;5038166;28;20190;-52
2023/05/04 00:22:38;;;;;;;16.73;15.05;;;5.70;99.90;;;;;;5038414;28;20574;-52
2023/05/04 00:25:05;;;;;;;16.70;15.27;;;5.70;99.90;;;;;;5039093;28;20183;-51
2023/05/04 00:27:31;;;;;;;16.45;15.02;;;5.70;99.90;;;;;;5039539;28;20454;-50
2023/05/04 00:29:56;;;;;;;16.23;14.50;;;5.60;99.90;;;;;;5038881;28;20190;-49
2023/05/04 00:32:22;;;;;;;17.33;15.50;;;5.60;99.90;;;;;;5039054;28;20514;-50
2023/05/04 00:34:48;;;;;;;18.03;16.23;;;5.50;99.90;;;;;;5039149;28;20201;-49
2023/05/04 00:37:13;;;;;;;16.57;15.23;;;5.50;99.90;;;;;;5038473;28;20182;-53
2023/05/04 00:39:39;;;;;;;17.07;15.57;;;5.50;99.90;;;;;;5039155;28;20436;-49
2023/05/04 00:42:05;;;;;;;17.80;16.20;;;5.40;99.90;;;;;;5038400;28;20198;-47
2023/05/04 00:44:30;;;;;;;17.53;15.97;;;5.40;99.90;;;;;;5038805;28;20530;-47
2023/05/04 00:46:56;;;;;;;17.20;15.80;;;5.40;99.90;;;;;;5038618;28;20522;-51
2023/05/04 00:49:23;;;;;;;17.70;16.13;;;5.40;99.90;;;;;;5038795;28;20562;-49
2023/05/04 00:51:50;;;;;;;16.75;15.35;;;5.30;99.90;;;;;;5038915;28;20495;-48
2023/05/04 00:54:17;;;;;;;16.88;15.52;;;5.30;99.90;;;;;;5038768;28;20539;-51
2023/05/04 00:56:42;;;;;;;16.45;15.10;;;5.30;99.90;;;;;;5038822;28;20294;-49
2023/05/04 00:59:08;;;;;;;18.10;16.40;;;5.30;99.90;;;;;;5039605;28;20182;-48
2023/05/04 01:01:34;;;;;;;16.60;15.30;;;5.20;99.90;;;;;;5039215;28;20195;-47
2023/05/04 01:04:00;;;;;;;16.60;15.20;;;5.20;99.90;;;;;;5039308;28;20209;-48
2023/05/04 01:06:50;;;;;;;16.30;14.90;;;5.10;99.90;;;;;;5038212;28;20886;-50
2023/05/04 01:09:41;;;;;;;16.70;15.25;;;5.10;99.90;;;;;;5039845;28;20451;-49
2023/05/04 01:12:34;;;;;;;17.55;15.95;;;5.10;99.90;;;;;;5042314;28;20195;-46
2023/05/04 01:15:01;;;;;;;15.57;14.27;;;5.00;99.90;;;;;;5039544;28;20284;-48
2023/05/04 01:17:27;;;;;;;15.98;14.68;;;4.90;99.90;;;;;;5041757;28;20190;-51
2023/05/04 01:19:52;;;;;;;16.83;15.43;;;4.90;99.90;;;;;;5040767;28;20591;-47
2023/05/04 01:22:19;;;;;;;15.87;14.50;;;4.90;99.90;;;;;;5041230;28;20229;-49
2023/05/04 01:24:45;;;;;;;16.17;14.90;;;4.80;99.90;;;;;;5041121;28;20190;-48
2023/05/04 01:27:23;;;;;;;16.03;14.63;;;4.90;99.90;;;;;;5042251;28;20667;-45
2023/05/04 01:30:01;;;;;;;16.35;14.95;;;4.80;99.90;;;;;;5042532;28;20553;-49
2023/05/04 01:32:28;;;;;;;15.48;14.18;;;4.80;99.90;;;;;;5042056;28;20877;-47
2023/05/04 01:34:55;;;;;;;16.40;15.20;;;4.70;99.90;;;;;;5042502;28;20628;-48
2023/05/04 01:37:21;;;;;;;15.85;14.45;;;4.70;99.90;;;;;;5042006;28;20209;-51
2023/05/04 01:39:46;;;;;;;16.73;15.10;;;4.60;99.90;;;;;;5041912;28;20190;-45
2023/05/04 01:42:12;;;;;;;15.73;14.43;;;4.60;99.90;;;;;;5042080;28;20627;-50
2023/05/04 01:44:38;;;;;;;16.63;15.13;;;4.60;99.90;;;;;;5041984;28;20190;-50
2023/05/04 01:47:03;;;;;;;15.77;14.37;;;4.60;99.90;;;;;;5040207;28;20637;-48
2023/05/04 01:49:29;;;;;;;16.17;14.67;;;4.50;99.90;;;;;;5041981;28;20186;-51
2023/05/04 01:51:55;;;;;;;15.23;14.00;;;4.50;99.90;;;;;;5040584;28;20189;-50
2023/05/04 01:54:20;;;;;;;15.13;13.83;;;4.50;99.90;;;;;;5041652;28;20185;-50
2023/05/04 01:56:46;;;;;;;15.93;14.50;;;4.50;99.90;;;;;;5041464;28;20715;-50
2023/05/04 01:59:12;;;;;;;16.20;14.70;;;4.40;99.90;;;;;;5041628;28;20192;-50
2023/05/04 02:01:37;;;;;;;15.30;14.00;;;4.40;99.90;;;;;;5040428;28;20190;-47
2023/05/04 02:04:03;;;;;;;14.80;13.60;;;4.30;99.90;;;;;;5041666;28;20749;-54
2023/05/04 02:06:29;;;;;;;15.33;13.93;;;4.30;99.90;;;;;;5041710;28;20404;-45
2023/05/04 02:08:55;;;;;;;15.23;14.05;;;4.30;99.90;;;;;;5041921;28;20189;-50
2023/05/04 02:11:20;;;;;;;15.73;14.23;;;4.30;99.90;;;;;;5040228;28;20189;-50
2023/05/04 02:13:46;;;;;;;15.63;14.03;;;4.30;99.90;;;;;;5041040;28;20471;-49
2023/05/04 02:16:12;;;;;;;15.10;13.80;;;4.30;99.90;;;;;;5041490;28;20185;-46
2023/05/04 02:18:37;;;;;;;16.40;14.80;;;4.20;99.90;;;;;;5041141;28;20186;-48
2023/05/04 02:21:03;;;;;;;16.20;14.70;;;4.20;99.90;;;;;;5040779;28;20189;-50
2023/05/04 02:23:29;;;;;;;16.43;14.87;;;4.20;99.90;;;;;;5041111;28;20243;-51
2023/05/04 02:25:55;;;;;;;15.90;14.60;;;4.20;99.90;;;;;;5041663;28;20633;-45
2023/05/04 02:28:20;;;;;;;14.80;13.30;;;4.20;99.90;;;;;;5041429;28;20275;-49
2023/05/04 02:30:46;;;;;;;16.20;14.53;;;4.10;99.90;;;;;;5040467;28;20190;-49
2023/05/04 02:33:12;;;;;;;15.37;13.97;;;4.10;99.90;;;;;;5040793;28;20240;-51
2023/05/04 02:35:37;;;;;;;15.43;14.13;;;4.10;99.90;;;;;;5040420;28;20628;-48
2023/05/04 02:38:03;;;;;;;16.30;14.83;;;4.10;99.90;;;;;;5040659;28;20669;-50
2023/05/04 02:40:29;;;;;;;16.03;14.40;;;4.10;99.90;;;;;;5039430;28;20419;-53
2023/05/04 02:42:54;;;;;;;16.53;14.63;;;4.10;99.90;;;;;;5040950;28;20189;-52
2023/05/04 02:45:20;;;;;;;16.23;14.83;;;4.10;99.90;;;;;;5041043;28;20194;-47
2023/05/04 02:47:46;;;;;;;16.13;14.50;;;4.10;99.90;;;;;;5040391;28;20198;-47
2023/05/04 02:50:12;;;;;;;15.50;14.10;;;4.10;99.90;;;;;;5040155;28;20585;-47
2023/05/04 02:52:37;;;;;;;15.07;13.77;;;4.00;99.90;;;;;;5039815;28;20611;-49
2023/05/04 02:55:03;;;;;;;16.20;14.70;;;4.00;99.90;;;;;;5041191;28;20185;-47
2023/05/04 02:57:32;;;;;;;15.57;14.27;;;4.00;99.90;;;;;;5039120;28;20183;-53
2023/05/04 02:59:57;;;;;;;15.90;14.50;;;4.00;99.90;;;;;;5039950;28;20415;-53
2023/05/04 03:02:23;;;;;;;16.07;14.20;;;4.00;99.90;;;;;;5040524;28;20186;-50
2023/05/04 03:04:48;;;;;;;16.13;14.30;;;4.00;99.90;;;;;;5040667;28;20460;-47
2023/05/04 03:07:14;;;;;;;16.10;14.50;;;3.90;99.90;;;;;;5040636;28;20194;-47
2023/05/04 03:09:40;;;;;;;15.30;14.10;;;3.90;99.90;;;;;;5041000;28;20186;-52
2023/05/04 03:12:05;;;;;;;16.87;15.17;;;3.90;99.90;;;;;;5040056;28;20186;-49
2023/05/04 03:14:31;;;;;;;16.13;14.63;;;3.90;99.90;;;;;;5039953;28;20209;-50
2023/05/04 03:16:57;;;;;;;16.73;15.33;;;3.80;99.90;;;;;;5039627;28;20729;-51
2023/05/04 03:19:23;;;;;;;16.33;14.90;;;3.80;99.90;;;;;;5038099;28;20189;-50
2023/05/04 03:21:48;;;;;;;16.47;15.00;;;3.80;99.90;;;;;;5040222;28;20221;-50
2023/05/04 03:24:16;;;;;;;16.53;14.93;;;3.70;99.90;;;;;;5039906;28;20208;-46
2023/05/04 03:26:42;;;;;;;16.23;14.75;;;3.70;99.90;;;;;;5039244;28;20197;-49
2023/05/04 03:29:09;;;;;;;16.83;15.33;;;3.70;99.90;;;;;;5040388;28;20185;-49
2023/05/04 03:31:35;;;;;;;16.25;14.77;;;3.70;99.90;;;;;;5039533;28;20524;-49
2023/05/04 03:34:00;;;;;;;17.00;15.30;;;3.70;99.90;;;;;;5039789;28;20217;-47
2023/05/04 03:36:26;;;;;;;16.53;14.77;;;3.60;99.90;;;;;;5039798;28;20248;-48
2023/05/04 03:38:52;;;;;;;18.27;16.53;;;3.60;99.90;;;;;;5039789;28;20181;-51
2023/05/04 03:41:17;;;;;;;15.87;14.37;;;3.70;99.90;;;;;;5039719;28;20679;-51
2023/05/04 03:43:43;;;;;;;16.80;15.07;;;3.60;99.90;;;;;;5040132;28;20640;-50
2023/05/04 03:46:08;;;;;;;15.27;13.73;;;3.60;99.90;;;;;;5039073;28;20197;-49
2023/05/04 03:48:34;;;;;;;15.37;13.97;;;3.70;99.90;;;;;;5039736;28;20719;-48
2023/05/04 03:51:00;;;;;;;15.10;13.70;;;3.70;99.90;;;;;;5039188;28;20193;-49
2023/05/04 03:53:25;;;;;;;16.20;14.80;;;3.60;99.90;;;;;;5040115;28;20281;-51
2023/05/04 03:55:51;;;;;;;18.60;15.10;;;3.60;99.90;;;;;;5039868;28;20181;-50
2023/05/04 03:58:16;;;;;;;15.40;14.00;;;3.70;99.90;;;;;;5040231;28;20189;-48
2023/05/04 04:00:42;;;;;;;15.37;13.93;;;3.70;99.90;;;;;;5039438;28;20520;-52
2023/05/04 04:03:08;;;;;;;15.70;14.10;;;3.70;99.90;;;;;;5036809;28;20231;-50
2023/05/04 04:05:33;;;;;;;15.17;13.67;;;3.70;99.90;;;;;;5039328;28;20683;-50
2023/05/04 04:07:59;;;;;;;17.13;15.63;;;3.70;99.90;;;;;;5039326;28;20185;-50
2023/05/04 04:10:25;;;;;;;15.63;14.13;;;3.70;99.90;;;;;;5038996;28;20194;-47
2023/05/04 04:12:51;;;;;;;16.40;14.70;;;3.70;99.90;;;;;;5039299;28;20757;-52
2023/05/04 04:15:16;;;;;;;15.30;13.90;;;3.80;99.90;;;;;;5039463;28;20475;-49
2023/05/04 04:17:42;;;;;;;14.70;13.20;;;3.70;99.90;;;;;;5037967;28;20177;-46
2023/05/04 04:20:08;;;;;;;15.17;13.70;;;3.70;99.90;;;;;;5037033;28;20217;-50
2023/05/04 04:22:37;;;;;;;19.13;15.10;;;3.70;99.90;;;;;;5039302;28;20257;-51
2023/05/04 04:25:03;;;;;;;15.23;13.68;;;3.70;99.90;;;;;;5037463;28;20189;-54
2023/05/04 04:27:29;;;;;;;15.93;14.40;;;3.80;99.90;;;;;;5037776;28;20284;-46
2023/05/04 04:29:55;;;;;;;16.15;14.55;;;3.80;99.90;;;;;;5037749;28;20232;-50
2023/05/04 04:32:21;;;;;;;17.05;15.15;;;3.90;99.90;;;;;;5037641;28;20209;-51
2023/05/04 04:34:47;;;;;;;17.03;15.23;;;3.90;99.90;;;;;;5037481;28;20182;-53
2023/05/04 04:37:12;;;;;;;16.07;14.47;;;4.00;99.90;;;;;;5038807;28;20200;-50
2023/05/04 04:39:38;;;;;;;16.73;15.07;;;4.00;99.90;;;;;;5039170;28;20637;-49
2023/05/04 04:42:03;;;;;;;19.03;14.27;;;4.10;99.90;;;;;;5037744;28;20220;-48
2023/05/04 04:44:29;;;;;;;17.43;15.83;;;4.00;99.90;;;;;;5040618;28;20205;-48
2023/05/04 04:46:55;;;;;;;17.37;15.87;;;4.10;99.90;;;;;;5041825;28;20552;-48
2023/05/04 04:49:20;;;;;;;16.43;14.70;;;4.10;99.90;;;;;;5042299;28;20273;-50
2023/05/04 04:51:47;;;;;;;16.43;15.00;;;4.10;99.90;;;;;;5043167;28;20420;-50
2023/05/04 04:54:13;;;;;;;16.50;14.98;;;4.10;99.90;;;;;;5042744;28;20201;-52
2023/05/04 04:56:39;;;;;;;16.20;14.60;;;4.20;99.90;;;;;;5042726;28;20186;-47
2023/05/04 04:59:05;;;;;;;17.70;16.00;;;4.20;99.90;;;;;;5042975;28;20478;-49
2023/05/04 05:01:32;;;;;;;17.45;15.75;;;4.20;99.90;;;;;;5042114;28;20490;-49
2023/05/04 05:03:58;;;;;;;18.05;16.15;;;4.30;99.90;;;;;;5042622;28;20923;-54
2023/05/04 05:06:24;;;;;;;17.20;15.60;;;4.40;99.90;;;;;;5042874;28;20533;-51
2023/05/04 05:08:50;;;;;;;17.35;15.85;;;4.40;99.90;;;;;;5042451;28;20246;-48
2023/05/04 05:11:16;;;;;;;17.08;15.55;;;4.40;99.90;;;;;;5042706;28;20166;-51
2023/05/04 05:13:41;;;;;;;16.70;15.10;;;4.50;99.90;;;;;;5041745;28;20580;-50
2023/05/04 05:16:07;;;;;;;17.37;15.87;;;4.60;99.90;;;;;;5042460;28;20210;-52
2023/05/04 05:18:33;;;;;;;18.20;16.30;;;4.60;99.90;;;;;;5042676;28;20173;-50
2023/05/04 05:20:59;;;;;;;16.50;14.90;;;4.70;99.90;;;;;;5042240;28;20186;-51
2023/05/04 05:23:25;;;;;;;18.75;16.92;;;4.80;99.90;;;;;;5042449;28;20263;-51
2023/05/04 05:25:51;;;;;;;17.50;15.90;;;4.80;99.90;;;;;;5040846;28;20534;-48
2023/05/04 05:28:17;;;;;;;18.37;16.70;;;4.90;99.90;;;;;;5042477;28;21066;-51
2023/05/04 05:30:43;;;;;;;18.38;16.88;;;5.00;99.90;;;;;;5042754;28;20178;-51
2023/05/04 05:33:09;;;;;;;18.70;17.10;;;5.10;99.90;;;;;;5042175;28;20676;-52
2023/05/04 05:35:34;;;;;;;18.73;16.88;;;5.30;99.90;;;;;;5042554;28;20524;-48
2023/05/04 05:38:00;;;;;;;19.10;17.30;;;5.40;99.90;;;;;;5041813;28;20185;-49
2023/05/04 05:40:27;;;;;;;18.60;16.67;;;5.50;99.90;;;;;;5041650;28;20599;-51
2023/05/04 05:42:52;;;;;;;17.38;15.85;;;5.60;99.90;;;;;;5042365;28;20239;-50
2023/05/04 05:45:18;;;;;;;17.90;16.13;;;5.70;99.90;;;;;;5040571;28;20187;-48
2023/05/04 05:47:44;;;;;;;18.73;16.27;;;5.90;99.90;;;;;;5040767;28;20198;-51
2023/05/04 05:50:12;;;;;;;18.43;16.70;;;6.00;99.90;;;;;;5041681;28;20200;-53
2023/05/04 05:52:37;;;;;;;16.90;15.25;;;6.10;99.90;;;;;;5041697;28;20219;-46
2023/05/04 05:55:04;;;;;;;16.77;15.27;;;6.20;99.90;;;;;;5041531;28;20189;-47
2023/05/04 05:57:29;;;;;;;17.13;15.70;;;6.40;99.90;;;;;;5041802;28;20712;-49
2023/05/04 05:59:55;;;;;;;16.37;15.10;;;6.50;99.90;;;;;;5041861;28;20188;-49
2023/05/04 06:02:21;;;;;;;16.70;15.40;;;6.60;99.90;;;;;;5042055;28;20193;-47
2023/05/04 06:04:46;;;;;;;17.23;15.93;;;6.70;99.90;;;;;;5041533;28;20436;-52
2023/05/04 06:07:12;;;;;;;17.00;15.70;;;6.80;99.90;;;;;;5041702;28;20650;-49
2023/05/04 06:09:38;;;;;;;16.57;15.37;;;6.90;99.90;;;;;;5041575;28;20544;-50
2023/05/04 06:12:06;;;;;;;16.53;14.80;;;7.00;99.90;;;;;;5040625;28;20481;-48
2023/05/04 06:14:32;;;;;;;16.60;15.20;;;7.10;99.90;;;;;;5040682;28;20432;-45
2023/05/04 06:16:57;;;;;;;17.30;15.80;;;7.20;99.90;;;;;;5041218;28;20412;-49
2023/05/04 06:19:24;;;;;;;16.67;15.27;;;7.40;99.90;;;;;;5041695;28;20411;-51
2023/05/04 06:21:49;;;;;;;16.97;15.60;;;7.50;99.90;;;;;;5039979;28;20189;-49
2023/05/04 06:24:15;;;;;;;16.20;14.90;;;7.60;99.90;;;;;;5041353;28;20431;-53
2023/05/04 06:26:41;;;;;;;16.50;15.30;;;7.80;99.90;;;;;;5041468;28;20267;-50
2023/05/04 06:29:06;;;;;;;17.33;15.90;;;7.90;99.90;;;;;;5041272;28;20183;-46
2023/05/04 06:31:32;;;;;;;15.53;14.43;;;8.10;99.90;;;;;;5041145;28;20429;-50
2023/05/04 06:33:58;;;;;;;16.77;15.27;;;8.20;99.90;;;;;;5040556;28;20574;-51
2023/05/04 06:36:25;;;;;;;16.63;15.10;;;8.30;99.90;;;;;;5040797;28;20423;-50
2023/05/04 06:38:50;;;;;;;15.17;13.97;;;8.50;99.90;;;;;;5041490;28;20212;-51
2023/05/04 06:41:16;;;;;;;16.23;14.67;;;8.60;99.90;;;;;;5041189;28;21120;-49
2023/05/04 06:43:42;;;;;;;17.53;16.03;;;8.80;99.90;;;;;;5041008;28;20228;-47
2023/05/04 06:46:08;;;;;;;16.07;14.77;;;8.90;99.90;;;;;;5039683;28;20578;-47
2023/05/04 06:48:33;;;;;;;14.50;13.40;;;9.10;99.90;;;;;;5040547;28;20802;-54
2023/05/04 06:50:59;;;;;;;15.50;14.40;;;9.20;99.90;;;;;;5041022;28;20281;-53
2023/05/04 06:53:24;;;;;;;15.53;14.13;;;9.40;99.90;;;;;;5040907;28;20306;-48
2023/05/04 06:55:50;;;;;;;14.20;13.20;;;9.60;99.90;;;;;;5040677;28;20199;-53
2023/05/04 06:58:17;;;;;;;14.73;13.47;;;9.80;99.90;;;;;;5040600;28;20200;-53
2023/05/04 07:00:43;;;;;;;14.97;13.90;;;10.00;99.90;;;;;;5039918;28;20989;-45
2023/05/04 07:03:09;;;;;;;14.37;13.27;;;10.20;99.90;;;;;;5040900;28;20465;-47
2023/05/04 07:05:36;;;;;;;14.90;13.70;;;10.40;99.90;;;;;;5040350;28;20632;-49
2023/05/04 07:08:02;;;;;;;13.30;12.40;;;10.50;99.90;;;;;;5040070;28;20242;-55
2023/05/04 07:10:27;;;;;;;14.33;13.23;;;10.70;99.90;;;;;;5040609;28;20423;-50
2023/05/04 07:12:53;;;;;;;13.50;12.30;;;10.80;98.70;;;;;;5040165;28;20503;-49
2023/05/04 07:15:19;;;;;;;13.47;12.43;;;11.10;98.40;;;;;;5040423;28;20303;-51
2023/05/04 07:17:46;;;;;;;13.83;12.87;;;11.30;98.00;;;;;;5040437;28;20195;-50
2023/05/04 07:20:12;;;;;;;13.60;12.60;;;11.40;97.10;;;;;;5039983;28;20823;-45
2023/05/04 07:22:38;;;;;;;13.30;12.50;;;11.50;96.40;;;;;;5040158;28;20472;-49
2023/05/04 07:25:04;;;;;;;13.50;12.63;;;11.90;95.90;;;;;;5038064;28;20438;-50
2023/05/04 07:27:30;;;;;;;13.30;12.40;;;12.00;95.50;;;;;;5037907;28;20196;-53
2023/05/04 07:29:56;;;;;;;13.87;12.87;;;12.20;93.70;;;;;;5039131;28;20803;-52
2023/05/04 07:32:22;;;;;;;12.90;12.10;;;12.40;93.70;;;;;;5039874;28;20541;-47
2023/05/04 07:34:47;;;;;;;14.00;13.10;;;12.60;93.20;;;;;;5039421;28;20427;-52
2023/05/04 07:37:14;;;;;;;13.60;12.70;;;12.80;92.60;;;;;;5040003;28;20898;-50
2023/05/04 07:39:40;;;;;;;14.00;13.10;;;12.90;91.10;;;;;;5039935;28;20204;-50
2023/05/04 07:42:07;;;;;;;13.80;12.90;;;13.20;91.20;;;;;;5040130;28;20423;-52
2023/05/04 07:44:32;;;;;;;13.20;12.43;;;13.40;90.50;;;;;;5039637;28;20363;-51
2023/05/04 07:46:58;;;;;;;12.77;11.97;;;13.60;87.10;;;;;;5039843;28;20424;-51
2023/05/04 07:49:25;;;;;;;11.83;11.13;;;13.80;82.50;;;;;;5040188;28;20313;-46
2023/05/04 07:51:51;;;;;;;12.90;12.10;;;14.10;80.20;;;;;;5038761;28;20557;-53
2023/05/04 07:54:17;;;;;;;12.60;11.90;;;14.20;75.70;;;;;;5040088;28;20913;-51
2023/05/04 07:56:43;;;;;;;12.57;11.87;;;14.40;74.80;;;;;;5039572;28;20972;-50
2023/05/04 07:59:09;;;;;;;12.97;12.27;;;14.60;74.20;;;;;;5039625;28;20420;-48
2023/05/04 08:01:34;;;;;;;13.17;12.37;;;14.80;69.30;;;;;;5038098;28;20432;-53
2023/05/04 08:04:00;;;;;;;12.10;11.40;;;15.00;67.50;;;;;;5039151;28;20302;-51
2023/05/04 08:06:26;;;;;;;12.57;11.87;;;15.20;65.90;;;;;;5039750;28;20659;-50
2023/05/04 08:08:51;;;;;;;12.23;11.50;;;15.40;64.50;;;;;;5039799;28;20212;-50
2023/05/04 08:11:17;;;;;;;12.57;11.87;;;15.60;62.20;;;;;;5038690;28;20281;-51
2023/05/04 08:13:46;;;;;;;12.80;12.00;;;15.70;56.70;;;;;;5039609;28;20699;-47
2023/05/04 08:16:12;;;;;;;12.60;11.80;;;15.80;54.60;;;;;;5039114;28;20332;-48
2023/05/04 08:18:38;;;;;;;13.00;12.20;;;15.90;54.40;;;;;;5037439;28;20447;-49
2023/05/04 08:21:03;;;;;;;13.50;12.50;;;16.10;54.60;;;;;;5039757;28;20189;-52
2023/05/04 08:23:30;;;;;;;10.87;10.27;;;16.30;52.20;;;;;;5039386;28;20246;-50
2023/05/04 08:25:55;;;;;;;11.13;10.40;;;16.50;52.60;;;;;;5039433;28;20551;-51
2023/05/04 08:28:21;;;;;;;10.60;10.03;;;16.70;52.40;;;;;;5038470;28;20451;-48
2023/05/04 08:30:46;;;;;;;12.77;11.83;;;16.90;51.60;;;;;;5037586;28;20204;-50
2023/05/04 08:33:12;;;;;;;10.80;10.23;;;17.10;51.30;;;;;;5039633;28;20693;-51
2023/05/04 08:35:37;;;;;;;11.97;11.27;;;17.40;50.90;;;;;;5039316;28;20212;-49
2023/05/04 08:38:03;;;;;;;12.93;12.13;;;17.50;49.50;;;;;;5039566;28;20192;-49
2023/05/04 08:40:29;;;;;;;11.60;10.90;;;17.60;48.10;;;;;;5039231;28;20336;-49
2023/05/04 08:42:55;;;;;;;10.50;9.87;;;17.80;48.50;;;;;;5039134;28;20247;-50
2023/05/04 08:45:21;;;;;;;11.13;10.43;;;17.90;47.70;;;;;;5039346;28;20640;-50
2023/05/04 08:47:47;;;;;;;11.20;10.50;;;18.20;48.40;;;;;;5039070;28;20526;-48
2023/05/04 08:50:12;;;;;;;12.03;11.33;;;18.40;45.90;;;;;;5039843;28;20174;-47
2023/05/04 08:52:45;;;;;;;12.97;12.27;;;18.60;44.30;;;;;;5038214;28;21154;-50
2023/05/04 08:55:11;;;;;;;12.63;11.83;;;18.70;42.90;;;;;;5039211;28;20206;-49
2023/05/04 08:57:38;;;;;;;12.60;11.90;;;18.70;41.30;;;;;;5038981;28;20478;-47
2023/05/04 09:00:04;;;;;;;12.37;11.57;;;18.90;41.10;;;;;;5039044;28;20822;-50
2023/05/04 09:02:32;;;;;;;12.47;11.77;;;19.30;43.50;;;;;;5038150;28;20483;-48
2023/05/04 09:05:00;;;;;;;13.10;12.37;;;19.70;42.90;;;;;;5036942;28;20472;-52
2023/05/04 09:07:25;;;;;;;12.80;11.80;;;20.10;41.40;;;;;;5038909;28;20428;-52
2023/05/04 09:09:51;;;;;;;12.77;12.07;;;20.50;38.90;;;;;;5039188;28;20428;-48
2023/05/04 09:12:18;;;;;;;12.47;11.67;;;21.10;39.10;;;;;;5039373;28;20190;-50
2023/05/04 09:14:47;;;;;;;11.30;10.60;;;21.70;38.00;;;;;;5039080;28;20247;-52
2023/05/04 09:17:24;;;;;;;12.40;11.60;;;22.20;36.60;;;;;;5038630;28;20719;-56
2023/05/04 09:20:03;;;;;;;12.70;11.80;;;22.50;34.70;;;;;;5039098;28;20420;-50
2023/05/04 09:22:29;;;;;;;12.27;11.57;;;22.90;32.80;;;;;;5039076;28;20472;-48
2023/05/04 09:25:12;;;;;;;13.13;12.43;;;23.20;32.70;;;;;;5038868;28;20858;-50
2023/05/04 09:27:42;;;;;;;12.87;12.07;;;23.40;31.30;;;;;;5038962;28;20479;-52
2023/05/04 09:30:08;;;;;;;11.80;11.20;;;23.50;30.30;;;;;;5040354;28;20543;-50
2023/05/04 09:32:49;;;;;;;12.20;11.30;;;23.90;30.40;;;;;;5040945;28;20472;-50
2023/05/04 09:35:18;;;;;;;12.40;11.80;;;24.40;28.90;;;;;;5042284;28;20451;-47
2023/05/04 09:37:45;;;;;;;11.70;11.10;;;24.50;28.40;;;;;;5042390;28;20412;-53
2023/05/04 09:40:12;;;;;;;10.90;10.23;;;24.80;28.40;;;;;;5042319;28;20988;-49
2023/05/04 09:42:38;;;;;;;12.10;11.40;;;25.00;28.10;;;;;;5040521;28;20440;-53
2023/05/04 09:45:06;;;;;;;12.07;11.37;;;25.40;27.20;;;;;;5042212;28;20424;-49
2023/05/04 09:47:37;;;;;;;11.97;11.43;;;25.80;25.60;;;;;;5039137;28;20533;-56
2023/05/04 09:50:21;;;;;;;12.20;11.50;;;26.00;25.70;;;;;;5042050;28;20439;-52
2023/05/04 09:52:47;;;;;;;12.00;11.40;;;26.10;24.20;;;;;;5041726;28;20985;-50
2023/05/04 09:55:15;;;;;;;10.90;10.20;;;25.90;22.50;;;;;;5042472;28;20412;-47
2023/05/04 09:57:41;;;;;;;10.93;10.33;;;26.40;23.00;;;;;;5042426;28;20416;-52
2023/05/04 10:00:11;;;;;;;11.37;10.77;;;26.40;22.50;;;;;;5041915;28;20444;-49
2023/05/04 10:02:36;;;;;;;11.53;10.93;;;25.20;22.20;;;;;;5041284;28;20454;-50
2023/05/04 10:05:05;;;;;;;12.63;11.93;;;25.10;22.80;;;;;;5042131;28;20910;-51
2023/05/04 10:07:32;;;;;;;11.57;10.97;;;24.90;22.90;;;;;;5041858;28;20182;-54
2023/05/04 10:09:58;;;;;;;10.90;10.30;;;25.10;23.30;;;;;;5041949;28;20428;-47
2023/05/04 10:12:24;;;;;;;10.67;9.97;;;25.70;24.00;;;;;;5041496;28;20438;-48
2023/05/04 10:14:51;;;;;;;11.83;11.13;;;26.10;23.50;;;;;;5040436;28;20190;-49
2023/05/04 10:17:40;;;;;;;10.77;10.17;;;26.60;22.90;;;;;;5039772;28;20444;-47
2023/05/04 10:20:21;;;;;;;11.57;10.97;;;27.00;21.70;;;;;;5040957;28;20506;-48
2023/05/04 10:23:04;;;;;;;11.57;10.97;;;27.50;21.50;;;;;;5041688;28;20487;-51
2023/05/04 10:25:53;;;;;;;11.17;10.57;;;27.80;21.50;;;;;;5041344;28;20427;-47
2023/05/04 10:28:58;;;;;;;11.50;10.90;;;27.10;19.30;;;;;;5039728;28;20438;-48
2023/05/04 10:31:24;;;;;;;12.30;11.70;;;27.30;21.20;;;;;;5037048;28;20458;-46
2023/05/04 10:33:50;;;;;;;11.43;10.93;;;27.90;21.30;;;;;;5041142;28;21146;-50
2023/05/04 10:36:15;;;;;;;12.33;11.73;;;28.10;21.00;;;;;;5041408;28;20495;-52
2023/05/04 10:38:41;;;;;;;11.93;11.33;;;28.30;20.50;;;;;;5039815;28;20476;-51
2023/05/04 10:41:18;;;;;;;11.80;11.10;;;28.10;19.90;;;;;;5040980;28;20280;-50
2023/05/04 10:43:52;;;;;;;11.43;10.93;;;28.40;20.30;;;;;;5041086;28;20208;-47
2023/05/04 10:46:22;;;;;;;12.30;11.63;;;28.60;20.20;;;;;;5040187;28;20686;-53
2023/05/04 10:48:48;;;;;;;12.20;11.50;;;28.70;18.20;;;;;;5040880;28;20420;-50
2023/05/04 10:51:25;;;;;;;12.77;12.07;;;28.90;19.60;;;;;;5041342;28;21244;-50
2023/05/04 10:53:51;;;;;;;12.97;12.30;;;28.90;18.40;;;;;;5040911;28;20989;-50
2023/05/04 10:56:29;;;;;;;12.63;12.03;;;29.10;19.10;;;;;;5041011;28;20405;-53
2023/05/04 10:58:55;;;;;;;12.50;11.80;;;29.20;18.90;;;;;;5040714;28;20404;-52
2023/05/04 11:01:20;;;;;;;12.50;11.90;;;29.10;17.70;;;;;;5040779;28;20898;-52
2023/05/04 11:03:48;;;;;;;12.60;12.00;;;28.70;18.10;;;;;;5040480;28;20190;-52
2023/05/04 11:06:23;;;;;;;13.23;12.53;;;28.90;18.70;;;;;;5040979;28;20707;-47
2023/05/04 11:09:01;;;;;;;12.30;11.70;;;29.40;17.90;;;;;;5040557;28;20797;-49
2023/05/04 11:11:26;;;;;;;11.03;10.43;;;29.40;17.40;;;;;;5040282;28;20547;-49
2023/05/04 11:13:53;;;;;;;11.63;11.13;;;29.50;17.80;;;;;;5040497;28;20464;-51
2023/05/04 11:16:23;;;;;;;13.33;12.73;;;29.90;18.20;;;;;;5039642;28;20186;-48
2023/05/04 11:18:49;;;;;;;12.03;11.40;;;29.70;16.90;;;;;;5040185;28;20467;-53
2023/05/04 11:21:24;;;;;;;12.40;11.80;;;29.90;18.10;;;;;;5040461;28;20527;-49
2023/05/04 11:23:57;;;;;;;12.43;11.83;;;30.20;17.40;;;;;;5040273;28;20727;-48
2023/05/04 11:26:23;;;;;;;11.63;11.03;;;30.50;17.40;;;;;;5040675;28;20428;-49
2023/05/04 11:28:49;;;;;;;12.60;11.80;;;30.90;17.10;;;;;;5040572;28;20428;-51
2023/05/04 11:31:16;;;;;;;12.50;11.70;;;31.40;15.40;;;;;;5040073;28;20429;-48
2023/05/04 11:33:53;;;;;;;12.50;11.80;;;31.20;15.10;;;;;;5040052;28;20468;-48
2023/05/04 11:36:20;;;;;;;12.60;11.70;;;31.10;16.10;;;;;;5040175;28;20419;-48
2023/05/04 11:38:46;;;;;;;11.70;11.10;;;30.40;14.50;;;;;;5040424;28;20448;-50
2023/05/04 11:41:12;;;;;;;12.83;12.23;;;29.80;15.70;;;;;;5039939;28;20924;-50
2023/05/04 11:43:41;;;;;;;13.10;12.50;;;30.00;16.30;;;;;;5040064;28;20190;-48
2023/05/04 11:46:07;;;;;;;12.33;11.73;;;30.00;15.20;;;;;;5038674;28;20189;-50
2023/05/04 11:48:34;;;;;;;11.83;11.27;;;30.20;16.20;;;;;;5039741;28;20428;-50
2023/05/04 11:51:01;;;;;;;10.63;10.03;;;30.30;16.10;;;;;;5039743;28;21075;-50
2023/05/04 11:53:36;;;;;;;11.33;10.83;;;30.40;16.00;;;;;;5039595;28;20471;-50
2023/05/04 11:56:01;;;;;;;12.43;11.90;;;30.70;15.40;;;;;;5039942;28;20730;-50
2023/05/04 11:58:27;;;;;;;11.37;10.87;;;30.60;14.80;;;;;;5039955;28;20429;-52
2023/05/04 12:00:57;;;;;;;12.23;11.63;;;30.60;15.20;;;;;;5039807;28;20182;-50
2023/05/04 12:03:28;;;;;;;11.37;10.77;;;30.70;14.70;;;;;;5039383;28;20619;-49
2023/05/04 12:05:55;;;;;;;12.40;11.80;;;30.70;15.20;;;;;;5040111;28;20809;-51
2023/05/04 12:08:32;;;;;;;11.60;11.10;;;30.90;15.10;;;;;;5039486;28;20841;-50
2023/05/04 12:11:11;;;;;;;12.03;11.53;;;30.70;15.50;;;;;;5039628;28;20424;-50
2023/05/04 12:13:37;;;;;;;11.83;11.23;;;30.70;14.90;;;;;;5039326;28;20518;-50
2023/05/04 12:16:11;;;;;;;11.27;10.77;;;30.20;14.00;;;;;;5038851;28;20849;-53
2023/05/04 12:18:37;;;;;;;11.50;10.90;;;30.30;15.00;;;;;;5039247;28;20435;-53
2023/05/04 12:21:13;;;;;;;11.77;11.17;;;30.30;15.00;;;;;;5039320;28;20412;-51
2023/05/04 12:23:40;;;;;;;11.73;11.13;;;30.00;15.00;;;;;;5039534;28;20725;-50
2023/05/04 12:26:07;;;;;;;11.17;10.67;;;30.00;14.70;;;;;;5039320;28;20431;-47
2023/05/04 12:28:37;;;;;;;11.77;11.27;;;30.00;15.70;;;;;;5039341;28;20485;-49
2023/05/04 12:31:03;;;;;;;11.17;10.67;;;30.00;15.10;;;;;;5039818;28;20420;-48
2023/05/04 12:33:30;;;;;;;11.47;10.97;;;29.90;15.10;;;;;;5037755;28;20478;-49